createdAt,value
2023-04-18T00:00:38.521Z,94806.00
2023-04-18T00:01:38.507Z,94806.00
2023-04-18T00:02:38.723Z,94806.00
2023-04-18T00:03:38.620Z,94806.00
2023-04-18T00:04:38.662Z,94806.00
2023-04-18T00:05:38.463Z,94806.00
2023-04-18T00:06:38.483Z,94806.00
2023-04-18T00:07:38.524Z,94806.00
2023-04-18T00:08:38.562Z,94806.00
2023-04-18T00:09:38.581Z,94804.00
2023-04-18T00:10:38.583Z,94800.00
2023-04-18T00:11:38.564Z,94804.00
2023-04-18T00:12:38.594Z,94798.00
2023-04-18T00:13:38.629Z,94800.00
2023-04-18T00:14:38.663Z,94800.00
2023-04-18T00:15:38.671Z,94800.00
2023-04-18T00:16:38.702Z,94796.00
2023-04-18T00:17:38.798Z,94798.00
2023-04-18T00:18:38.729Z,94800.00
2023-04-18T00:19:38.767Z,94796.00
2023-04-18T00:20:38.865Z,94796.00
2023-04-18T00:21:38.819Z,94798.00
2023-04-18T00:22:38.819Z,94794.00
2023-04-18T00:23:38.837Z,94794.00
2023-04-18T00:24:38.862Z,94794.00
2023-04-18T00:25:39.019Z,94796.00
2023-04-18T00:26:38.899Z,94794.00
2023-04-18T00:27:38.923Z,94794.00
2023-04-18T00:28:38.982Z,94794.00
2023-04-18T00:29:38.966Z,94796.00
2023-04-18T00:30:38.990Z,94794.00
2023-04-18T00:31:39.013Z,94794.00
2023-04-18T00:32:39.046Z,94796.00
2023-04-18T00:33:39.059Z,94794.00
2023-04-18T00:34:39.065Z,94794.00
2023-04-18T00:35:39.082Z,94794.00
2023-04-18T00:36:39.093Z,94794.00
2023-04-18T00:37:39.116Z,94796.00
2023-04-18T00:38:39.134Z,94796.00
2023-04-18T00:39:39.187Z,94796.00
2023-04-18T00:40:39.205Z,94794.00
2023-04-18T00:41:39.235Z,94794.00
2023-04-18T00:42:39.219Z,94794.00
2023-04-18T00:43:39.230Z,94794.00
2023-04-18T00:44:39.256Z,94794.00
2023-04-18T00:45:39.277Z,94792.00
2023-04-18T00:46:39.371Z,94792.00
2023-04-18T00:47:39.364Z,94794.00
2023-04-18T00:48:39.356Z,94794.00
2023-04-18T00:49:39.400Z,94792.00
2023-04-18T00:50:39.378Z,94792.00
2023-04-18T00:51:39.391Z,94790.00
2023-04-18T00:52:39.455Z,94792.00
2023-04-18T00:53:39.464Z,94790.00
2023-04-18T00:54:39.493Z,94792.00
2023-04-18T00:55:39.507Z,94792.00
2023-04-18T00:56:39.521Z,94792.00
2023-04-18T00:57:39.548Z,94790.00
2023-04-18T00:58:39.557Z,94790.00
2023-04-18T00:59:39.597Z,94788.00
2023-04-18T01:00:39.618Z,94792.00
2023-04-18T01:01:39.649Z,94790.00
2023-04-18T01:02:39.800Z,94790.00
2023-04-18T01:03:39.918Z,94788.00
2023-04-18T01:04:39.776Z,94790.00
2023-04-18T01:05:40.182Z,94790.00
2023-04-18T01:06:39.724Z,94788.00
2023-04-18T01:07:39.755Z,94786.00
2023-04-18T01:08:39.786Z,94788.00
2023-04-18T01:09:39.825Z,94788.00
2023-04-18T01:10:39.818Z,94788.00
2023-04-18T01:11:39.873Z,94788.00
2023-04-18T01:12:39.881Z,94790.00
2023-04-18T01:13:39.888Z,94788.00
2023-04-18T01:14:39.946Z,94788.00
2023-04-18T01:15:40.001Z,94784.00
2023-04-18T01:16:39.970Z,94786.00
2023-04-18T01:17:40.027Z,94784.00
2023-04-18T01:18:40.009Z,94782.00
2023-04-18T01:19:40.080Z,94784.00
2023-04-18T01:20:40.052Z,94782.00
2023-04-18T01:21:40.059Z,94780.00
2023-04-18T01:22:40.109Z,94776.00
2023-04-18T01:23:40.107Z,94778.00
2023-04-18T01:24:40.129Z,94774.00
2023-04-18T01:25:40.212Z,94774.00
2023-04-18T01:26:40.187Z,94774.00
2023-04-18T01:27:40.224Z,94774.00
2023-04-18T01:28:40.225Z,94770.00
2023-04-18T01:29:40.299Z,94770.00
2023-04-18T01:30:40.268Z,94772.00
2023-04-18T01:31:40.342Z,94770.00
2023-04-18T01:32:40.457Z,94767.00
2023-04-18T01:33:40.354Z,94770.00
2023-04-18T01:34:40.426Z,94769.00
2023-04-18T01:35:40.415Z,94769.00
2023-04-18T01:36:40.417Z,94770.00
2023-04-18T01:37:40.481Z,94770.00
2023-04-18T01:38:40.463Z,94770.00
2023-04-18T01:39:40.526Z,94770.00
2023-04-18T01:40:40.531Z,94769.00
2023-04-18T01:41:40.543Z,94769.00
2023-04-18T01:42:40.598Z,94770.00
2023-04-18T01:43:40.632Z,94772.00
2023-04-18T01:44:40.613Z,94770.00
2023-04-18T01:45:40.683Z,94767.00
2023-04-18T01:46:40.767Z,94769.00
2023-04-18T01:47:40.714Z,94770.00
2023-04-18T01:48:40.731Z,94772.00
2023-04-18T01:49:40.758Z,94772.00
2023-04-18T01:50:40.779Z,94770.00
2023-04-18T01:51:40.820Z,94769.00
2023-04-18T01:52:40.820Z,94769.00
2023-04-18T01:53:40.880Z,94770.00
2023-04-18T01:54:40.878Z,94767.00
2023-04-18T01:55:40.931Z,94769.00
2023-04-18T01:56:40.955Z,94769.00
2023-04-18T01:57:40.992Z,94769.00
2023-04-18T01:58:40.981Z,94767.00
2023-04-18T01:59:41.056Z,94769.00
2023-04-18T02:00:41.145Z,94769.00
2023-04-18T02:01:41.088Z,94769.00
2023-04-18T02:02:41.210Z,94767.00
2023-04-18T02:03:41.299Z,94767.00
2023-04-18T02:04:41.136Z,94770.00
2023-04-18T02:05:41.184Z,94767.00
2023-04-18T02:06:41.188Z,94767.00
2023-04-18T02:07:41.227Z,94769.00
2023-04-18T02:08:41.267Z,94765.00
2023-04-18T02:09:41.280Z,94765.00
2023-04-18T02:10:41.352Z,94767.00
2023-04-18T02:11:41.324Z,94769.00
2023-04-18T02:12:41.356Z,94769.00
2023-04-18T02:13:41.372Z,94769.00
2023-04-18T02:14:41.427Z,94770.00
2023-04-18T02:15:41.460Z,94770.00
2023-04-18T02:16:41.544Z,94770.00
2023-04-18T02:17:41.652Z,94770.00
2023-04-18T02:18:41.521Z,94769.00
2023-04-18T02:19:41.598Z,94770.00
2023-04-18T02:20:41.589Z,94770.00
2023-04-18T02:21:41.635Z,94770.00
2023-04-18T02:22:41.672Z,94770.00
2023-04-18T02:23:41.676Z,94770.00
2023-04-18T02:24:41.715Z,94770.00
2023-04-18T02:25:41.739Z,94772.00
2023-04-18T02:26:41.812Z,94772.00
2023-04-18T02:27:41.798Z,94769.00
2023-04-18T02:28:41.827Z,94770.00
2023-04-18T02:29:41.876Z,94772.00
2023-04-18T02:30:41.885Z,94770.00
2023-04-18T02:31:41.941Z,94770.00
2023-04-18T02:32:41.984Z,94770.00
2023-04-18T02:33:41.971Z,94772.00
2023-04-18T02:34:41.999Z,94772.00
2023-04-18T02:35:42.039Z,94770.00
2023-04-18T02:36:42.040Z,94772.00
2023-04-18T02:37:42.064Z,94772.00
2023-04-18T02:38:42.150Z,94772.00
2023-04-18T02:39:42.127Z,94772.00
2023-04-18T02:40:42.179Z,94772.00
2023-04-18T02:41:42.175Z,94772.00
2023-04-18T02:42:42.189Z,94772.00
2023-04-18T02:43:42.221Z,94774.00
2023-04-18T02:44:42.258Z,94774.00
2023-04-18T02:45:42.298Z,94774.00
2023-04-18T02:46:42.328Z,94772.00
2023-04-18T02:47:53.873Z,94774.00
2023-04-18T02:48:43.321Z,94774.00
2023-04-18T02:49:42.331Z,94774.00
2023-04-18T02:50:42.302Z,94776.00
2023-04-18T02:51:42.304Z,94774.00
2023-04-18T02:52:42.316Z,94776.00
2023-04-18T02:53:42.280Z,94774.00
2023-04-18T02:54:42.301Z,94774.00
2023-04-18T02:55:42.269Z,94774.00
2023-04-18T02:56:42.274Z,94772.00
2023-04-18T02:57:42.301Z,94772.00
2023-04-18T02:58:42.246Z,94770.00
2023-04-18T02:59:42.248Z,94772.00
2023-04-18T03:00:42.227Z,94772.00
2023-04-18T03:01:42.270Z,94770.00
2023-04-18T03:02:42.323Z,94769.00
2023-04-18T03:03:42.240Z,94770.00
2023-04-18T03:04:42.279Z,94770.00
2023-04-18T03:05:42.224Z,94765.00
2023-04-18T03:06:42.337Z,94769.00
2023-04-18T03:07:42.260Z,94767.00
2023-04-18T03:08:42.292Z,94769.00
2023-04-18T03:09:42.330Z,94763.00
2023-04-18T03:10:42.363Z,94763.00
2023-04-18T03:11:42.380Z,94765.00
2023-04-18T03:12:42.412Z,94763.00
2023-04-18T03:13:42.442Z,94763.00
2023-04-18T03:14:42.478Z,94765.00
2023-04-18T03:15:42.539Z,94763.00
2023-04-18T03:16:42.524Z,94765.00
2023-04-18T03:17:42.623Z,94767.00
2023-04-18T03:18:42.589Z,94763.00
2023-04-18T03:19:42.707Z,94763.00
2023-04-18T03:20:42.662Z,94763.00
2023-04-18T03:21:42.728Z,94763.00
2023-04-18T03:22:42.754Z,94761.00
2023-04-18T03:23:42.753Z,94761.00
2023-04-18T03:24:42.834Z,94765.00
2023-04-18T03:25:42.823Z,94761.00
2023-04-18T03:26:42.930Z,94759.00
2023-04-18T03:27:42.940Z,94759.00
2023-04-18T03:28:43.017Z,94761.00
2023-04-18T03:29:43.094Z,94759.00
2023-04-18T03:30:43.149Z,94759.00
2023-04-18T03:31:43.268Z,94759.00
2023-04-18T03:32:43.284Z,94759.00
2023-04-18T03:33:43.283Z,94763.00
2023-04-18T03:34:43.335Z,94763.00
2023-04-18T03:35:43.452Z,94759.00
2023-04-18T03:36:44.515Z,94765.00
2023-04-18T03:37:43.506Z,94761.00
2023-04-18T03:38:43.592Z,94761.00
2023-04-18T03:39:43.619Z,94761.00
2023-04-18T03:40:43.659Z,94761.00
2023-04-18T03:41:43.707Z,94761.00
2023-04-18T03:42:43.731Z,94761.00
2023-04-18T03:43:43.755Z,94761.00
2023-04-18T03:44:43.843Z,94755.00
2023-04-18T03:45:43.817Z,94757.00
2023-04-18T03:46:43.960Z,94755.00
2023-04-18T03:47:43.989Z,94757.00
2023-04-18T03:48:43.948Z,94755.00
2023-04-18T03:49:44.017Z,94759.00
2023-04-18T03:50:44.030Z,94757.00
2023-04-18T03:51:44.043Z,94759.00
2023-04-18T03:52:44.136Z,94757.00
2023-04-18T03:53:44.170Z,94759.00
2023-04-18T03:54:44.205Z,94755.00
2023-04-18T03:55:44.216Z,94757.00
2023-04-18T03:56:44.247Z,94757.00
2023-04-18T03:57:44.284Z,94757.00
2023-04-18T03:58:44.346Z,94759.00
2023-04-18T03:59:45.585Z,94759.00
2023-04-18T04:00:44.383Z,94763.00
2023-04-18T04:01:44.471Z,94761.00
2023-04-18T04:02:44.577Z,94761.00
2023-04-18T04:03:44.668Z,94761.00
2023-04-18T04:04:44.609Z,94761.00
2023-04-18T04:05:44.578Z,94759.00
2023-04-18T04:06:44.640Z,94761.00
2023-04-18T04:07:44.666Z,94761.00
2023-04-18T04:08:44.676Z,94761.00
2023-04-18T04:09:44.779Z,94761.00
2023-04-18T04:10:44.751Z,94763.00
2023-04-18T04:11:44.781Z,94763.00
2023-04-18T04:12:44.846Z,94763.00
2023-04-18T04:13:44.919Z,94767.00
2023-04-18T04:14:44.894Z,94763.00
2023-04-18T04:15:44.946Z,94763.00
2023-04-18T04:16:45.083Z,94765.00
2023-04-18T04:17:45.075Z,94763.00
2023-04-18T04:18:45.054Z,94763.00
2023-04-18T04:19:45.144Z,94761.00
2023-04-18T04:20:45.158Z,94763.00
2023-04-18T04:21:45.160Z,94765.00
2023-04-18T04:22:45.198Z,94763.00
2023-04-18T04:23:45.263Z,94767.00
2023-04-18T04:24:45.290Z,94767.00
2023-04-18T04:25:45.335Z,94767.00
2023-04-18T04:26:45.364Z,94767.00
2023-04-18T04:27:45.392Z,94769.00
2023-04-18T04:28:45.444Z,94770.00
2023-04-18T04:29:45.491Z,94772.00
2023-04-18T04:30:45.567Z,94772.00
2023-04-18T04:31:45.605Z,94774.00
2023-04-18T04:32:45.701Z,94772.00
2023-04-18T04:33:45.649Z,94776.00
2023-04-18T04:34:45.675Z,94776.00
2023-04-18T04:35:45.734Z,94776.00
2023-04-18T04:36:45.748Z,94776.00
2023-04-18T04:37:45.792Z,94776.00
2023-04-18T04:38:45.834Z,94776.00
2023-04-18T04:39:45.908Z,94776.00
2023-04-18T04:40:45.913Z,94776.00
2023-04-18T04:41:45.937Z,94780.00
2023-04-18T04:42:45.976Z,94778.00
2023-04-18T04:43:46.011Z,94780.00
2023-04-18T04:44:46.075Z,94778.00
2023-04-18T04:45:46.123Z,94780.00
2023-04-18T04:46:46.125Z,94778.00
2023-04-18T04:47:46.228Z,94778.00
2023-04-18T04:48:46.199Z,94782.00
2023-04-18T04:49:46.232Z,94786.00
2023-04-18T04:50:46.279Z,94788.00
2023-04-18T04:51:46.335Z,94788.00
2023-04-18T04:52:46.342Z,94790.00
2023-04-18T04:53:46.398Z,94790.00
2023-04-18T04:54:46.427Z,94790.00
2023-04-18T04:55:46.444Z,94792.00
2023-04-18T04:56:46.497Z,94794.00
2023-04-18T04:57:46.566Z,94794.00
2023-04-18T04:58:46.551Z,94790.00
2023-04-18T04:59:46.622Z,94796.00
2023-04-18T05:00:46.649Z,94796.00
2023-04-18T05:01:46.781Z,94792.00
2023-04-18T05:02:46.865Z,94794.00
2023-04-18T05:03:46.879Z,94790.00
2023-04-18T05:04:46.814Z,94790.00
2023-04-18T05:05:46.840Z,94790.00
2023-04-18T05:06:46.871Z,94790.00
2023-04-18T05:07:46.897Z,94792.00
2023-04-18T05:08:46.944Z,94790.00
2023-04-18T05:09:46.993Z,94792.00
2023-04-18T05:10:47.008Z,94794.00
2023-04-18T05:11:47.122Z,94796.00
2023-04-18T05:12:47.119Z,94800.00
2023-04-18T05:13:47.159Z,94798.00
2023-04-18T05:14:47.158Z,94794.00
2023-04-18T05:15:47.235Z,94794.00
2023-04-18T05:16:47.245Z,94796.00
2023-04-18T05:17:47.321Z,94794.00
2023-04-18T05:18:47.320Z,94796.00
2023-04-18T05:19:47.369Z,94798.00
2023-04-18T05:20:47.416Z,94798.00
2023-04-18T05:21:47.449Z,94802.00
2023-04-18T05:22:47.809Z,94802.00
2023-04-18T05:23:47.534Z,94802.00
2023-04-18T05:24:47.593Z,94804.00
2023-04-18T05:25:47.632Z,94804.00
2023-04-18T05:26:47.686Z,94806.00
2023-04-18T05:27:47.827Z,94804.00
2023-04-18T05:28:47.759Z,94804.00
2023-04-18T05:29:47.817Z,94808.00
2023-04-18T05:30:47.912Z,94804.00
2023-04-18T05:31:47.855Z,94808.00
2023-04-18T05:32:47.933Z,94814.00
2023-04-18T05:33:47.898Z,94806.00
2023-04-18T05:34:48.348Z,94808.00
2023-04-18T05:35:48.156Z,94804.00
2023-04-18T05:36:47.940Z,94806.00
2023-04-18T05:37:48.083Z,94804.00
2023-04-18T05:38:47.994Z,94804.00
2023-04-18T05:39:48.315Z,94802.00
2023-04-18T05:40:48.027Z,94804.00
2023-04-18T05:41:47.962Z,94806.00
2023-04-18T05:42:48.334Z,94804.00
2023-04-18T05:43:58.194Z,94806.00
2023-04-18T05:44:49.341Z,94804.00
2023-04-18T05:45:48.124Z,94804.00
2023-04-18T05:46:48.186Z,94808.00
2023-04-18T05:47:48.086Z,94806.00
2023-04-18T05:48:48.047Z,94806.00
2023-04-18T05:49:48.349Z,94810.00
2023-04-18T05:50:48.072Z,94812.00
2023-04-18T05:51:48.004Z,94812.00
2023-04-18T05:52:47.995Z,94814.00
2023-04-18T05:53:48.306Z,94812.00
2023-04-18T05:54:48.030Z,94814.00
2023-04-18T05:55:48.002Z,94816.00
2023-04-18T05:56:48.004Z,94814.00
2023-04-18T05:57:48.043Z,94817.00
2023-04-18T05:58:48.053Z,94817.00
2023-04-18T05:59:48.078Z,94816.00
2023-04-18T06:00:48.138Z,94819.00
2023-04-18T06:01:48.113Z,94819.00
2023-04-18T06:02:48.265Z,94817.00
2023-04-18T06:03:48.318Z,94819.00
2023-04-18T06:04:48.283Z,94819.00
2023-04-18T06:05:48.226Z,94821.00
2023-04-18T06:06:48.191Z,94821.00
2023-04-18T06:07:48.201Z,94827.00
2023-04-18T06:08:48.236Z,94825.00
2023-04-18T06:09:48.238Z,94825.00
2023-04-18T06:10:48.244Z,94825.00
2023-04-18T06:11:48.208Z,94825.00
2023-04-18T06:12:48.245Z,94825.00
2023-04-18T06:13:48.368Z,94827.00
2023-04-18T06:14:48.239Z,94831.00
2023-04-18T06:15:48.270Z,94831.00
2023-04-18T06:16:48.209Z,94831.00
2023-04-18T06:17:48.263Z,94829.00
2023-04-18T06:18:48.224Z,94831.00
2023-04-18T06:19:48.210Z,94831.00
2023-04-18T06:20:48.207Z,94835.00
2023-04-18T06:21:48.288Z,94835.00
2023-04-18T06:22:48.297Z,94837.00
2023-04-18T06:23:48.229Z,94837.00
2023-04-18T06:24:48.282Z,94839.00
2023-04-18T06:25:48.357Z,94839.00
2023-04-18T06:26:49.048Z,94835.00
2023-04-18T06:27:48.322Z,94837.00
2023-04-18T06:28:48.434Z,94835.00
2023-04-18T06:29:48.454Z,94839.00
2023-04-18T06:30:48.455Z,94839.00
2023-04-18T06:31:48.544Z,94839.00
2023-04-18T06:32:48.573Z,94839.00
2023-04-18T06:33:48.543Z,94839.00
2023-04-18T06:34:48.597Z,94841.00
2023-04-18T06:35:48.642Z,94843.00
2023-04-18T06:36:48.669Z,94849.00
2023-04-18T06:37:48.736Z,94845.00
2023-04-18T06:38:48.861Z,94843.00
2023-04-18T06:39:48.856Z,94841.00
2023-04-18T06:40:49.350Z,94839.00
2023-04-18T06:41:49.351Z,94839.00
2023-04-18T06:42:48.866Z,94841.00
2023-04-18T06:44:02.160Z,94841.00
2023-04-18T06:44:49.908Z,94839.00
2023-04-18T06:45:49.404Z,94837.00
2023-04-18T06:46:48.870Z,94841.00
2023-04-18T06:47:49.016Z,94839.00
2023-04-18T06:48:49.873Z,94839.00
2023-04-18T06:49:49.068Z,94843.00
2023-04-18T06:50:49.337Z,94837.00
2023-04-18T06:51:49.206Z,94841.00
2023-04-18T06:52:49.187Z,94841.00
2023-04-18T06:53:49.252Z,94841.00
2023-04-18T06:54:49.292Z,94843.00
2023-04-18T06:55:49.339Z,94839.00
2023-04-18T06:56:49.388Z,94839.00
2023-04-18T06:57:49.439Z,94839.00
2023-04-18T06:58:49.508Z,94839.00
2023-04-18T06:59:49.494Z,94837.00
2023-04-18T07:00:49.920Z,94837.00
2023-04-18T07:01:49.559Z,94837.00
2023-04-18T07:02:49.694Z,94841.00
2023-04-18T07:03:50.442Z,94837.00
2023-04-18T07:04:49.644Z,94837.00
2023-04-18T07:05:49.859Z,94837.00
2023-04-18T07:06:49.636Z,94839.00
2023-04-18T07:07:49.681Z,94837.00
2023-04-18T07:08:49.666Z,94837.00
2023-04-18T07:09:49.639Z,94839.00
2023-04-18T07:10:49.648Z,94835.00
2023-04-18T07:11:49.674Z,94837.00
2023-04-18T07:12:49.640Z,94835.00
2023-04-18T07:13:49.640Z,94837.00
2023-04-18T07:14:49.648Z,94835.00
2023-04-18T07:15:49.687Z,94837.00
2023-04-18T07:16:49.729Z,94837.00
2023-04-18T07:17:49.787Z,94835.00
2023-04-18T07:18:49.798Z,94835.00
2023-04-18T07:19:49.794Z,94835.00
2023-04-18T07:20:49.848Z,94833.00
2023-04-18T07:21:49.918Z,94833.00
2023-04-18T07:22:49.936Z,94833.00
2023-04-18T07:23:49.998Z,94833.00
2023-04-18T07:24:50.059Z,94833.00
2023-04-18T07:25:50.116Z,94833.00
2023-04-18T07:26:50.208Z,94833.00
2023-04-18T07:27:50.243Z,94831.00
2023-04-18T07:28:50.357Z,94831.00
2023-04-18T07:29:50.430Z,94833.00
2023-04-18T07:30:50.491Z,94833.00
2023-04-18T07:31:50.523Z,94829.00
2023-04-18T07:32:50.625Z,94829.00
2023-04-18T07:33:50.900Z,94835.00
2023-04-18T07:34:50.603Z,94837.00
2023-04-18T07:35:50.680Z,94835.00
2023-04-18T07:36:50.703Z,94837.00
2023-04-18T07:37:50.758Z,94833.00
2023-04-18T07:38:50.901Z,94837.00
2023-04-18T07:39:50.809Z,94837.00
2023-04-18T07:40:50.811Z,94835.00
2023-04-18T07:41:50.826Z,94835.00
2023-04-18T07:42:50.862Z,94837.00
2023-04-18T07:43:50.954Z,94835.00
2023-04-18T07:44:51.001Z,94835.00
2023-04-18T07:45:51.110Z,94837.00
2023-04-18T07:46:51.858Z,94837.00
2023-04-18T07:47:51.221Z,94837.00
2023-04-18T07:48:51.239Z,94837.00
2023-04-18T07:49:51.399Z,94837.00
2023-04-18T07:50:51.380Z,94837.00
2023-04-18T07:51:51.389Z,94837.00
2023-04-18T07:52:51.444Z,94837.00
2023-04-18T07:53:51.518Z,94839.00
2023-04-18T07:54:51.521Z,94837.00
2023-04-18T07:55:51.957Z,94837.00
2023-04-18T07:56:51.640Z,94837.00
2023-04-18T07:57:51.684Z,94837.00
2023-04-18T07:58:51.712Z,94837.00
2023-04-18T07:59:51.883Z,94833.00
2023-04-18T08:00:51.887Z,94839.00
2023-04-18T08:01:51.959Z,94835.00
2023-04-18T08:02:52.033Z,94837.00
2023-04-18T08:03:52.225Z,94839.00
2023-04-18T08:04:52.348Z,94833.00
2023-04-18T08:05:52.043Z,94833.00
2023-04-18T08:06:52.797Z,94833.00
2023-04-18T08:07:52.123Z,94831.00
2023-04-18T08:08:52.145Z,94831.00
2023-04-18T08:09:52.216Z,94831.00
2023-04-18T08:10:52.228Z,94829.00
2023-04-18T08:11:52.255Z,94831.00
2023-04-18T08:12:52.315Z,94831.00
2023-04-18T08:13:52.344Z,94829.00
2023-04-18T08:14:52.386Z,94829.00
2023-04-18T08:15:52.431Z,94829.00
2023-04-18T08:16:52.446Z,94833.00
2023-04-18T08:17:52.510Z,94829.00
2023-04-18T08:18:52.529Z,94825.00
2023-04-18T08:19:52.533Z,94833.00
2023-04-18T08:20:52.606Z,94833.00
2023-04-18T08:21:52.577Z,94827.00
2023-04-18T08:23:05.609Z,94825.00
2023-04-18T08:23:53.606Z,94827.00
2023-04-18T08:25:04.317Z,94825.00
2023-04-18T08:25:53.906Z,94821.00
2023-04-18T08:26:52.576Z,94823.00
2023-04-18T08:27:52.583Z,94819.00
2023-04-18T08:28:52.560Z,94816.00
2023-04-18T08:29:52.589Z,94819.00
2023-04-18T08:30:53.418Z,94816.00
2023-04-18T08:31:52.618Z,94814.00
2023-04-18T08:32:52.714Z,94816.00
2023-04-18T08:33:52.567Z,94814.00
2023-04-18T08:34:52.916Z,94816.00
2023-04-18T08:35:52.538Z,94812.00
2023-04-18T08:36:52.549Z,94808.00
2023-04-18T08:37:52.540Z,94808.00
2023-04-18T08:38:52.583Z,94810.00
2023-04-18T08:39:52.902Z,94806.00
2023-04-18T08:40:52.924Z,94804.00
2023-04-18T08:41:52.714Z,94800.00
2023-04-18T08:42:52.810Z,94804.00
2023-04-18T08:43:53.440Z,94806.00
2023-04-18T08:44:52.947Z,94808.00
2023-04-18T08:45:52.935Z,94806.00
2023-04-18T08:46:53.423Z,94806.00
2023-04-18T08:47:53.125Z,94810.00
2023-04-18T08:48:53.013Z,94808.00
2023-04-18T08:49:52.983Z,94810.00
2023-04-18T08:50:53.424Z,94808.00
2023-04-18T08:51:52.969Z,94806.00
2023-04-18T08:52:52.982Z,94804.00
2023-04-18T08:53:53.043Z,94806.00
2023-04-18T08:54:53.419Z,94804.00
2023-04-18T08:55:53.416Z,94804.00
2023-04-18T08:56:53.063Z,94808.00
2023-04-18T08:57:53.093Z,94806.00
2023-04-18T08:58:53.062Z,94816.00
2023-04-18T08:59:53.434Z,94810.00
2023-04-18T09:00:53.082Z,94810.00
2023-04-18T09:01:53.132Z,94810.00
2023-04-18T09:02:53.174Z,94808.00
2023-04-18T09:03:53.146Z,94808.00
2023-04-18T09:04:53.075Z,94814.00
2023-04-18T09:05:53.058Z,94814.00
2023-04-18T09:06:53.075Z,94812.00
2023-04-18T09:07:53.048Z,94812.00
2023-04-18T09:08:53.063Z,94814.00
2023-04-18T09:09:53.058Z,94814.00
2023-04-18T09:10:53.088Z,94816.00
2023-04-18T09:11:53.087Z,94812.00
2023-04-18T09:12:53.056Z,94810.00
2023-04-18T09:13:53.046Z,94814.00
2023-04-18T09:14:53.062Z,94812.00
2023-04-18T09:15:53.114Z,94808.00
2023-04-18T09:16:53.071Z,94812.00
2023-04-18T09:17:53.122Z,94808.00
2023-04-18T09:18:53.065Z,94810.00
2023-04-18T09:19:53.088Z,94804.00
2023-04-18T09:20:53.462Z,94800.00
2023-04-18T09:21:53.490Z,94806.00
2023-04-18T09:22:53.103Z,94802.00
2023-04-18T09:23:53.109Z,94802.00
2023-04-18T09:24:53.109Z,94808.00
2023-04-18T09:25:53.119Z,94798.00
2023-04-18T09:26:53.199Z,94800.00
2023-04-18T09:27:53.138Z,94792.00
2023-04-18T09:28:53.966Z,94798.00
2023-04-18T09:29:53.807Z,94796.00
2023-04-18T09:30:53.463Z,94796.00
2023-04-18T09:31:53.149Z,94792.00
2023-04-18T09:32:53.194Z,94792.00
2023-04-18T09:33:53.198Z,94794.00
2023-04-18T09:34:53.242Z,94792.00
2023-04-18T09:35:53.433Z,94788.00
2023-04-18T09:36:53.365Z,94788.00
2023-04-18T09:37:53.326Z,94794.00
2023-04-18T09:38:56.203Z,94788.00
2023-04-18T09:39:53.415Z,94794.00
2023-04-18T09:40:53.345Z,94786.00
2023-04-18T09:41:53.352Z,94788.00
2023-04-18T09:42:53.342Z,94788.00
2023-04-18T09:43:53.334Z,94790.00
2023-04-18T09:44:54.575Z,94778.00
2023-04-18T09:45:53.481Z,94786.00
2023-04-18T09:46:53.304Z,94780.00
2023-04-18T09:47:53.388Z,94782.00
2023-04-18T09:48:53.313Z,94780.00
2023-04-18T09:49:53.297Z,94784.00
2023-04-18T09:50:53.452Z,94780.00
2023-04-18T09:51:53.423Z,94782.00
2023-04-18T09:52:53.257Z,94782.00
2023-04-18T09:53:53.313Z,94780.00
2023-04-18T09:54:53.260Z,94786.00
2023-04-18T09:55:54.869Z,94782.00
2023-04-18T09:56:53.267Z,94784.00
2023-04-18T09:57:53.234Z,94786.00
2023-04-18T09:58:53.244Z,94786.00
2023-04-18T09:59:53.239Z,94784.00
2023-04-18T10:00:53.234Z,94786.00
2023-04-18T10:01:53.301Z,94782.00
2023-04-18T10:02:53.340Z,94778.00
2023-04-18T10:03:53.244Z,94780.00
2023-04-18T10:04:53.270Z,94778.00
2023-04-18T10:05:53.179Z,94776.00
2023-04-18T10:06:53.998Z,94784.00
2023-04-18T10:07:53.160Z,94782.00
2023-04-18T10:08:53.164Z,94782.00
2023-04-18T10:09:53.155Z,94780.00
2023-04-18T10:10:53.153Z,94780.00
2023-04-18T10:11:53.148Z,94782.00
2023-04-18T10:12:53.141Z,94774.00
2023-04-18T10:13:53.148Z,94772.00
2023-04-18T10:14:53.201Z,94776.00
2023-04-18T10:15:53.152Z,94772.00
2023-04-18T10:16:53.094Z,94770.00
2023-04-18T10:18:03.337Z,94769.00
2023-04-18T10:18:54.082Z,94770.00
2023-04-18T10:19:53.069Z,94767.00
2023-04-18T10:20:53.102Z,94763.00
2023-04-18T10:21:53.093Z,94759.00
2023-04-18T10:22:53.059Z,94767.00
2023-04-18T10:23:53.057Z,94769.00
2023-04-18T10:24:53.117Z,94765.00
2023-04-18T10:25:53.083Z,94761.00
2023-04-18T10:26:53.453Z,94761.00
2023-04-18T10:27:53.093Z,94761.00
2023-04-18T10:28:53.343Z,94755.00
2023-04-18T10:29:53.115Z,94753.00
2023-04-18T10:30:53.080Z,94753.00
2023-04-18T10:31:53.589Z,94755.00
2023-04-18T10:32:53.219Z,94755.00
2023-04-18T10:34:03.795Z,94755.00
2023-04-18T10:34:54.172Z,94751.00
2023-04-18T10:35:53.158Z,94751.00
2023-04-18T10:36:53.142Z,94753.00
2023-04-18T10:37:53.144Z,94751.00
2023-04-18T10:38:53.157Z,94747.00
2023-04-18T10:39:53.152Z,94747.00
2023-04-18T10:40:53.137Z,94743.00
2023-04-18T10:41:53.120Z,94743.00
2023-04-18T10:42:53.115Z,94743.00
2023-04-18T10:43:53.106Z,94743.00
2023-04-18T10:44:53.127Z,94741.00
2023-04-18T10:45:53.097Z,94741.00
2023-04-18T10:46:53.228Z,94741.00
2023-04-18T10:47:53.162Z,94737.00
2023-04-18T10:48:53.085Z,94739.00
2023-04-18T10:49:53.148Z,94737.00
2023-04-18T10:50:53.218Z,94737.00
2023-04-18T10:51:53.420Z,94739.00
2023-04-18T10:52:53.307Z,94743.00
2023-04-18T10:53:53.358Z,94737.00
2023-04-18T10:54:53.394Z,94737.00
2023-04-18T10:55:53.491Z,94737.00
2023-04-18T10:56:53.586Z,94739.00
2023-04-18T10:57:53.528Z,94733.00
2023-04-18T10:58:53.562Z,94731.00
2023-04-18T10:59:53.685Z,94735.00
2023-04-18T11:00:53.647Z,94729.00
2023-04-18T11:01:53.677Z,94731.00
2023-04-18T11:02:53.878Z,94729.00
2023-04-18T11:03:53.855Z,94727.00
2023-04-18T11:04:53.785Z,94727.00
2023-04-18T11:05:53.859Z,94727.00
2023-04-18T11:06:53.832Z,94725.00
2023-04-18T11:07:53.894Z,94723.00
2023-04-18T11:08:53.906Z,94722.00
2023-04-18T11:09:53.976Z,94725.00
2023-04-18T11:10:53.985Z,94720.00
2023-04-18T11:11:54.057Z,94727.00
2023-04-18T11:12:54.064Z,94722.00
2023-04-18T11:13:54.116Z,94720.00
2023-04-18T11:14:54.122Z,94718.00
2023-04-18T11:15:54.171Z,94718.00
2023-04-18T11:16:54.455Z,94716.00
2023-04-18T11:17:54.326Z,94716.00
2023-04-18T11:18:54.255Z,94714.00
2023-04-18T11:19:54.321Z,94714.00
2023-04-18T11:20:54.396Z,94714.00
2023-04-18T11:21:54.463Z,94710.00
2023-04-18T11:22:54.434Z,94712.00
2023-04-18T11:23:54.449Z,94708.00
2023-04-18T11:24:54.483Z,94708.00
2023-04-18T11:25:54.504Z,94708.00
2023-04-18T11:26:55.471Z,94706.00
2023-04-18T11:27:54.562Z,94708.00
2023-04-18T11:28:54.612Z,94708.00
2023-04-18T11:29:54.645Z,94706.00
2023-04-18T11:30:54.737Z,94706.00
2023-04-18T11:31:57.734Z,94708.00
2023-04-18T11:32:54.716Z,94708.00
2023-04-18T11:33:54.714Z,94708.00
2023-04-18T11:34:54.704Z,94706.00
2023-04-18T11:35:54.687Z,94708.00
2023-04-18T11:36:54.673Z,94704.00
2023-04-18T11:37:54.676Z,94702.00
2023-04-18T11:38:54.657Z,94704.00
2023-04-18T11:39:54.667Z,94704.00
2023-04-18T11:40:54.669Z,94702.00
2023-04-18T11:41:54.649Z,94702.00
2023-04-18T11:42:54.665Z,94704.00
2023-04-18T11:43:54.651Z,94702.00
2023-04-18T11:44:54.631Z,94702.00